createdAt,value
2023-02-04T00:02:21.318Z,74.48
2023-02-04T00:04:51.533Z,74.74
2023-02-04T00:07:21.428Z,75.10
2023-02-04T00:09:51.877Z,75.47
2023-02-04T00:12:23.399Z,75.83
2023-02-04T00:14:54.136Z,75.94
2023-02-04T00:17:24.477Z,76.06
2023-02-04T00:19:54.145Z,76.12
2023-02-04T00:22:23.300Z,76.33
2023-02-04T00:24:53.562Z,76.35
2023-02-04T00:27:23.056Z,76.44
2023-02-04T00:29:52.749Z,76.67
2023-02-04T00:32:22.564Z,76.89
2023-02-04T00:34:53.736Z,77.03
2023-02-04T00:37:23.485Z,77.23
2023-02-04T00:39:53.015Z,77.41
2023-02-04T00:42:23.201Z,77.53
2023-02-04T00:44:53.131Z,77.66
2023-02-04T00:47:22.820Z,77.58
2023-02-04T00:49:51.652Z,77.65
2023-02-04T00:52:21.389Z,77.85
2023-02-04T00:54:50.743Z,77.84
2023-02-04T00:57:20.142Z,77.70
2023-02-04T00:59:49.149Z,77.56
2023-02-04T01:02:19.146Z,77.56
2023-02-04T01:04:48.783Z,77.61
2023-02-04T01:07:21.246Z,77.61
2023-02-04T01:09:51.205Z,77.71
2023-02-04T01:12:22.840Z,77.93
2023-02-04T01:14:52.451Z,78.13
2023-02-04T01:17:24.578Z,78.28
2023-02-04T01:19:55.654Z,78.28
2023-02-04T01:22:25.282Z,78.27
2023-02-04T01:24:56.637Z,78.37
2023-02-04T01:27:45.730Z,78.38
2023-02-04T01:30:17.116Z,78.29
2023-02-04T01:32:48.314Z,78.07
2023-02-04T01:35:17.820Z,77.97
2023-02-04T01:37:47.574Z,77.89
2023-02-04T01:40:17.589Z,77.88
2023-02-04T01:42:49.112Z,78.02
2023-02-04T01:45:18.892Z,78.05
2023-02-04T01:47:48.985Z,77.98
2023-02-04T01:50:18.509Z,78.12
2023-02-04T01:52:48.130Z,78.06
2023-02-04T01:55:24.612Z,78.07
2023-02-04T01:57:55.680Z,78.09
2023-02-04T02:00:31.930Z,78.11
2023-02-04T02:03:03.388Z,78.03
2023-02-04T02:05:48.744Z,78.06
2023-02-04T02:08:18.709Z,78.04
2023-02-04T02:10:48.832Z,78.09
2023-02-04T02:13:18.690Z,78.21
2023-02-04T02:15:48.477Z,78.31
2023-02-04T02:18:19.120Z,78.30
2023-02-04T02:20:48.346Z,78.40
2023-02-04T02:23:49.557Z,78.44
2023-02-04T02:26:21.058Z,78.39
2023-02-04T02:28:52.260Z,78.28
2023-02-04T02:31:22.288Z,78.23
2023-02-04T02:33:51.910Z,78.39
2023-02-04T02:36:22.907Z,78.39
2023-02-04T02:38:55.326Z,78.29
2023-02-04T02:41:24.513Z,77.95
2023-02-04T02:43:55.857Z,77.49
2023-02-04T02:46:25.264Z,76.77
2023-02-04T02:48:55.459Z,76.43
2023-02-04T02:51:25.895Z,76.16
2023-02-04T02:53:55.409Z,75.39
2023-02-04T02:56:24.853Z,75.28
2023-02-04T02:58:54.776Z,75.11
2023-02-04T03:01:27.104Z,75.00
2023-02-04T03:03:56.930Z,74.98
2023-02-04T03:06:26.582Z,74.83
2023-02-04T03:08:56.905Z,74.75
2023-02-04T03:11:32.849Z,74.69
2023-02-04T03:14:03.422Z,74.57
2023-02-04T03:16:33.400Z,74.44
2023-02-04T03:19:03.075Z,74.36
2023-02-04T03:21:34.072Z,74.24
2023-02-04T03:24:06.276Z,74.14
2023-02-04T03:26:35.657Z,74.15
2023-02-04T03:29:08.271Z,74.15
2023-02-04T03:31:38.401Z,74.26
2023-02-04T03:34:07.427Z,74.17
2023-02-04T03:36:36.787Z,74.12
2023-02-04T03:39:06.865Z,74.24
2023-02-04T03:41:36.477Z,74.22
2023-02-04T03:44:06.031Z,74.40
2023-02-04T03:46:35.476Z,74.45
2023-02-04T03:49:05.960Z,74.51
2023-02-04T03:51:36.363Z,74.61
2023-02-04T03:54:06.377Z,74.58
2023-02-04T03:56:37.970Z,74.61
2023-02-04T03:59:07.298Z,74.69
2023-02-04T04:01:40.986Z,74.82
2023-02-04T04:04:10.499Z,74.96
2023-02-04T04:06:41.513Z,74.92
2023-02-04T04:09:11.773Z,75.02
2023-02-04T04:11:42.768Z,75.02
2023-02-04T04:14:13.996Z,75.19
2023-02-04T04:16:43.857Z,75.42
2023-02-04T04:19:14.822Z,75.48
2023-02-04T04:21:45.646Z,75.66
2023-02-04T04:24:16.366Z,75.60
2023-02-04T04:26:47.099Z,75.73
2023-02-04T04:29:17.026Z,75.80
2023-02-04T04:31:47.783Z,75.89
2023-02-04T04:34:17.321Z,76.04
2023-02-04T04:36:49.647Z,76.26
2023-02-04T04:39:22.401Z,76.36
2023-02-04T04:41:52.552Z,76.32
2023-02-04T04:44:22.853Z,76.37
2023-02-04T04:46:52.309Z,76.62
2023-02-04T04:49:21.983Z,76.73
2023-02-04T04:51:51.992Z,76.82
2023-02-04T04:54:21.175Z,76.85
2023-02-04T04:56:51.783Z,76.89
2023-02-04T04:59:21.676Z,76.89
2023-02-04T05:01:51.323Z,76.94
2023-02-04T05:04:21.918Z,76.98
2023-02-04T05:06:51.596Z,76.97
2023-02-04T05:09:22.303Z,76.92
2023-02-04T05:11:52.008Z,77.06
2023-02-04T05:14:22.056Z,77.19
2023-02-04T05:16:52.035Z,77.28
2023-02-04T05:19:41.492Z,77.22
2023-02-04T05:22:10.905Z,77.26
2023-02-04T05:24:40.392Z,77.11
2023-02-04T05:27:11.084Z,77.21
2023-02-04T05:29:41.359Z,77.31
2023-02-04T05:32:12.328Z,77.36
2023-02-04T05:34:42.500Z,77.38
2023-02-04T05:37:12.206Z,77.42
2023-02-04T05:39:41.613Z,77.41
2023-02-04T05:42:10.513Z,77.44
2023-02-04T05:44:40.913Z,77.56
2023-02-04T05:47:10.406Z,77.53
2023-02-04T05:49:41.368Z,77.59
2023-02-04T05:52:11.658Z,77.59
2023-02-04T05:54:41.457Z,77.50
2023-02-04T05:57:10.944Z,77.57
2023-02-04T05:59:40.513Z,77.58
2023-02-04T06:02:09.960Z,77.68
2023-02-04T06:04:39.355Z,77.72
2023-02-04T06:07:08.927Z,77.72
2023-02-04T06:09:39.779Z,77.84
2023-02-04T06:12:10.491Z,77.96
2023-02-04T06:14:40.173Z,78.03
2023-02-04T06:17:11.161Z,78.11
2023-02-04T06:19:41.113Z,78.15
2023-02-04T06:22:11.203Z,78.26
2023-02-04T06:24:42.753Z,78.37
2023-02-04T06:27:11.957Z,78.50
2023-02-04T06:29:41.192Z,78.58
2023-02-04T06:32:10.641Z,78.61
2023-02-04T06:34:40.252Z,78.74
2023-02-04T06:37:09.967Z,78.86
2023-02-04T06:39:40.338Z,78.96
2023-02-04T06:42:10.413Z,78.97
2023-02-04T06:44:40.146Z,79.16
2023-02-04T06:47:09.322Z,79.30
2023-02-04T06:49:39.245Z,79.36
2023-02-04T06:52:08.919Z,79.45
2023-02-04T06:54:39.767Z,79.53
2023-02-04T06:57:09.475Z,79.54
2023-02-04T06:59:39.948Z,79.45
2023-02-04T07:02:11.070Z,79.51
2023-02-04T07:04:42.143Z,79.51
2023-02-04T07:07:12.035Z,79.53
2023-02-04T07:09:42.532Z,79.59
2023-02-04T07:12:12.042Z,79.58
2023-02-04T07:14:43.023Z,79.71
2023-02-04T07:17:14.067Z,79.82
2023-02-04T07:19:44.421Z,80.04
2023-02-04T07:22:13.709Z,80.10
2023-02-04T07:24:45.225Z,80.17
2023-02-04T07:27:14.613Z,80.19
2023-02-04T07:29:44.120Z,80.15
2023-02-04T07:32:13.910Z,80.26
2023-02-04T07:34:44.668Z,80.48
2023-02-04T07:37:15.113Z,80.62
2023-02-04T07:39:44.576Z,80.62
2023-02-04T07:42:15.869Z,80.52
2023-02-04T07:44:48.419Z,80.55
2023-02-04T07:47:18.668Z,80.72
2023-02-04T07:49:48.600Z,80.69
2023-02-04T07:52:18.520Z,80.62
2023-02-04T07:54:48.301Z,80.65
2023-02-04T07:57:19.641Z,80.53
2023-02-04T07:59:48.243Z,80.39
2023-02-04T08:02:17.223Z,80.35
2023-02-04T08:04:47.059Z,80.14
2023-02-04T08:07:18.182Z,79.95
2023-02-04T08:09:47.808Z,79.75
2023-02-04T08:12:17.591Z,79.44
2023-02-04T08:14:47.885Z,79.30
2023-02-04T08:17:18.176Z,78.88
2023-02-04T08:19:47.694Z,78.76
2023-02-04T08:22:19.217Z,78.60
2023-02-04T08:24:48.789Z,77.65
2023-02-04T08:27:19.339Z,77.66
2023-02-04T08:29:49.593Z,77.65
2023-02-04T08:32:20.226Z,77.53
2023-02-04T08:34:51.043Z,77.26
2023-02-04T08:37:20.258Z,77.08
2023-02-04T10:15:22.103Z,79.95
2023-02-04T10:17:56.094Z,79.86
2023-02-04T10:20:25.893Z,79.66
2023-02-04T10:22:56.075Z,79.66
2023-02-04T10:25:26.743Z,80.25
2023-02-04T10:28:00.492Z,80.27
2023-02-04T10:30:34.025Z,79.73
2023-02-04T10:33:15.283Z,79.53
2023-02-04T10:35:48.174Z,79.46
2023-02-04T10:38:16.625Z,79.69
2023-02-04T10:40:47.047Z,79.78
2023-02-04T10:43:21.612Z,79.90
2023-02-04T10:45:58.583Z,80.08
2023-02-04T10:48:30.089Z,80.31
2023-02-04T10:50:59.425Z,80.30
2023-02-04T10:53:46.579Z,80.33
2023-02-04T10:56:20.691Z,80.39
2023-02-04T10:58:50.111Z,80.27
2023-02-04T11:01:18.889Z,80.16
2023-02-04T11:03:48.857Z,80.37
2023-02-04T11:06:23.854Z,80.43
2023-02-04T11:08:54.975Z,80.51
2023-02-04T11:11:25.901Z,80.46
2023-02-04T11:13:59.313Z,80.52
2023-02-04T11:16:32.566Z,80.43
2023-02-04T11:19:12.583Z,80.58
2023-02-04T11:21:45.375Z,80.65
2023-02-04T11:24:20.089Z,80.53
2023-02-04T11:26:51.698Z,80.69
2023-02-04T11:29:37.306Z,80.61
2023-02-04T11:32:35.825Z,80.39
2023-02-04T11:35:18.911Z,80.16
2023-02-04T11:37:49.109Z,80.23
2023-02-04T11:40:30.274Z,79.97
2023-02-04T11:43:11.364Z,79.69
2023-02-04T11:45:40.353Z,79.27
2023-02-04T11:48:20.240Z,78.46
2023-02-04T11:50:58.815Z,77.49
2023-02-04T11:53:31.644Z,75.76
2023-02-04T11:56:02.214Z,74.61
2023-02-04T11:58:31.326Z,74.30
2023-02-04T12:01:00.221Z,73.99
2023-02-04T12:03:31.505Z,73.67
2023-02-04T12:06:00.466Z,72.47
2023-02-04T12:08:33.824Z,71.74
2023-02-04T12:11:12.132Z,71.43
2023-02-04T12:13:52.029Z,71.62
2023-02-04T12:16:23.802Z,72.03
2023-02-04T12:18:54.951Z,72.13
2023-02-04T12:21:24.090Z,72.55
2023-02-04T12:23:52.940Z,72.83
2023-02-04T12:26:22.034Z,72.68
2023-02-04T12:28:50.689Z,72.97
2023-02-04T12:31:19.840Z,73.21
2023-02-04T12:33:48.926Z,73.63
2023-02-04T12:36:17.991Z,73.55
2023-02-04T12:38:47.069Z,73.73
2023-02-04T12:41:16.523Z,74.04
2023-02-04T12:43:46.477Z,73.85
2023-02-04T12:46:15.022Z,73.88
2023-02-04T12:48:43.885Z,73.96
2023-02-04T12:51:14.792Z,74.02
2023-02-04T12:53:43.719Z,74.17
2023-02-04T12:56:12.696Z,74.43
2023-02-04T12:58:41.633Z,74.91
2023-02-04T13:01:10.264Z,75.01
2023-02-04T13:03:39.778Z,74.18
2023-02-04T13:06:08.599Z,74.28
2023-02-04T13:08:37.878Z,74.17
2023-02-04T13:11:07.005Z,73.85
2023-02-04T13:13:36.700Z,73.84
2023-02-04T13:16:08.952Z,73.83
2023-02-04T13:18:39.274Z,73.85
2023-02-04T13:21:08.317Z,73.72
2023-02-04T13:23:37.422Z,73.60
2023-02-04T13:26:08.609Z,73.72
2023-02-04T13:28:37.415Z,73.88
2023-02-04T13:31:07.513Z,73.27
2023-02-04T13:33:37.639Z,72.74
2023-02-04T13:36:10.098Z,72.55
2023-02-04T13:38:42.430Z,72.57
2023-02-04T13:41:11.656Z,72.53
2023-02-04T13:43:40.800Z,72.33
2023-02-04T13:46:10.369Z,71.73
2023-02-04T13:48:39.152Z,71.07
2023-02-04T13:51:09.761Z,70.59
2023-02-04T13:53:39.020Z,70.57
2023-02-04T13:56:09.282Z,70.50
2023-02-04T13:58:39.667Z,70.60
2023-02-04T14:01:08.459Z,69.83
2023-02-04T14:03:37.675Z,69.70
2023-02-04T14:06:07.250Z,69.36
2023-02-04T14:08:36.185Z,69.23
2023-02-04T14:11:07.388Z,68.47
2023-02-04T14:13:38.092Z,67.85
2023-02-04T14:16:09.463Z,67.92
2023-02-04T14:18:38.289Z,68.12
2023-02-04T14:21:07.750Z,67.98
2023-02-04T14:23:39.076Z,67.17
2023-02-04T14:26:08.118Z,66.91
2023-02-04T14:28:37.438Z,66.57
2023-02-04T14:31:07.439Z,66.63
2023-02-04T14:33:37.368Z,66.52
2023-02-04T14:36:06.765Z,66.51
2023-02-04T14:38:35.815Z,66.64
2023-02-04T14:41:04.890Z,66.88
2023-02-04T14:43:35.631Z,66.08
2023-02-04T14:46:08.016Z,66.18
2023-02-04T14:48:37.768Z,66.23
2023-02-04T14:51:07.172Z,65.93
2023-02-04T14:53:35.911Z,66.12
2023-02-04T14:56:04.926Z,66.51
2023-02-04T14:58:34.100Z,68.32
2023-02-04T15:01:03.055Z,66.85
2023-02-04T15:03:37.580Z,66.50
2023-02-04T15:06:08.334Z,66.19
2023-02-04T15:08:37.423Z,66.67
2023-02-04T15:11:08.129Z,67.18
2023-02-04T15:13:38.271Z,67.34
2023-02-04T15:16:07.341Z,68.56
2023-02-04T15:18:36.990Z,67.48
2023-02-04T15:21:07.935Z,67.32
2023-02-04T15:23:36.976Z,65.62
2023-02-04T15:26:06.128Z,65.66
2023-02-04T15:28:37.069Z,66.40
2023-02-04T15:31:05.945Z,66.21
2023-02-04T15:33:36.163Z,66.06
2023-02-04T15:36:06.102Z,65.36
2023-02-04T15:38:35.403Z,65.14
2023-02-04T15:41:06.100Z,65.08
2023-02-04T15:43:35.777Z,64.99
2023-02-04T15:46:06.346Z,64.39
2023-02-04T15:48:35.680Z,64.47
2023-02-04T15:51:05.653Z,69.10
2023-02-04T15:53:37.510Z,67.88
2023-02-04T15:56:07.299Z,66.25
2023-02-04T15:58:37.790Z,66.49
2023-02-04T16:01:06.847Z,65.75
2023-02-04T17:28:58.212Z,63.18
2023-02-04T17:31:28.856Z,63.00
2023-02-04T17:33:59.590Z,62.80
2023-02-04T17:36:31.168Z,62.55
2023-02-04T17:39:00.798Z,62.68
2023-02-04T17:41:30.950Z,62.66
2023-02-04T17:44:01.142Z,62.89
2023-02-04T17:46:31.336Z,62.83
2023-02-04T17:49:01.583Z,62.97
2023-02-04T17:51:30.978Z,63.00
2023-02-04T17:54:00.155Z,62.95
2023-02-04T17:56:29.701Z,62.90
2023-02-04T17:58:58.541Z,63.12
2023-02-04T18:01:27.567Z,62.94
2023-02-04T18:03:57.147Z,63.07
2023-02-04T18:06:29.423Z,62.84
2023-02-04T18:09:03.243Z,62.89
2023-02-04T18:11:36.156Z,63.00
2023-02-04T18:14:17.150Z,63.39
2023-02-04T18:16:46.286Z,63.32
2023-02-04T18:19:21.552Z,63.27
2023-02-04T18:21:51.075Z,62.79
2023-02-04T18:24:31.518Z,63.09
2023-02-04T18:27:01.905Z,63.22
2023-02-04T18:29:37.078Z,63.38
2023-02-04T18:32:26.696Z,63.45
2023-02-04T18:34:59.241Z,63.47
2023-02-04T18:37:36.320Z,63.44
2023-02-04T18:40:17.644Z,63.50
2023-02-04T18:42:46.579Z,63.55
2023-02-04T18:45:27.574Z,63.56
2023-02-04T18:48:00.835Z,63.55
2023-02-04T18:50:32.871Z,63.58
2023-02-04T18:53:18.352Z,63.67
2023-02-04T18:55:54.946Z,63.55
2023-02-04T18:58:31.792Z,63.62
2023-02-04T19:01:09.844Z,63.62
2023-02-04T19:04:00.807Z,63.72
2023-02-04T19:06:43.225Z,63.84
2023-02-04T19:09:20.915Z,63.59
2023-02-04T19:11:51.909Z,63.86
2023-02-04T19:14:38.801Z,64.01
2023-02-04T19:17:28.520Z,63.95
2023-02-04T19:20:21.236Z,63.86
2023-02-04T19:22:54.793Z,63.94
2023-02-04T19:25:35.858Z,64.09
2023-02-04T19:28:16.739Z,64.22
2023-02-04T19:30:50.265Z,64.17
2023-02-04T19:33:24.685Z,64.40
2023-02-04T19:35:54.709Z,64.65
2023-02-04T19:38:38.441Z,64.73
2023-02-04T19:41:27.636Z,64.79
2023-02-04T19:44:08.392Z,65.06
2023-02-04T19:46:38.557Z,65.27
2023-02-04T19:49:26.217Z,65.43
2023-02-04T19:51:57.755Z,65.60
2023-02-04T19:54:38.294Z,65.83
2023-02-04T19:57:19.084Z,66.11
2023-02-04T19:59:47.896Z,66.22
2023-02-04T20:02:38.322Z,66.56
2023-02-04T20:05:19.678Z,66.70
2023-02-04T20:07:49.808Z,66.87
2023-02-04T20:10:23.403Z,67.08
2023-02-04T20:13:00.931Z,67.07
2023-02-04T20:15:31.285Z,67.36
2023-02-04T20:18:00.031Z,67.45
2023-02-04T20:20:32.204Z,67.59
2023-02-04T20:23:02.798Z,67.69
2023-02-04T20:25:45.639Z,67.67
2023-02-04T20:28:40.432Z,67.79
2023-02-04T20:31:26.216Z,67.78
2023-02-04T20:33:59.303Z,67.87
2023-02-04T20:36:40.964Z,67.85
2023-02-04T20:39:29.691Z,67.91
2023-02-04T20:42:20.906Z,67.95
2023-02-04T20:44:50.053Z,68.00
2023-02-04T20:47:21.444Z,68.20
2023-02-04T20:49:58.065Z,68.39
2023-02-04T20:52:48.320Z,68.52
2023-02-04T20:55:30.077Z,68.51
2023-02-04T20:58:23.844Z,68.64
2023-02-04T21:00:54.197Z,68.70
2023-02-04T21:03:29.645Z,68.78
2023-02-04T21:06:00.568Z,68.78
2023-02-04T21:08:45.482Z,68.90
2023-02-04T21:11:15.782Z,68.86
2023-02-04T21:14:07.042Z,68.98
2023-02-04T21:16:38.874Z,69.06
2023-02-04T21:19:07.618Z,69.03
2023-02-04T21:21:38.798Z,69.12
2023-02-04T21:24:08.078Z,69.27
2023-02-04T21:26:37.522Z,69.40
2023-02-04T21:29:06.937Z,69.49
2023-02-04T21:31:35.951Z,69.46
2023-02-04T21:34:06.759Z,69.59
2023-02-04T21:36:37.399Z,69.59
2023-02-04T21:39:05.994Z,69.51
2023-02-04T21:41:35.641Z,69.41
2023-02-04T21:44:04.783Z,69.27
2023-02-04T21:46:35.557Z,69.47
2023-02-04T21:49:06.441Z,69.55
2023-02-04T21:51:35.621Z,69.52
2023-02-04T21:54:05.210Z,69.64
2023-02-04T21:56:34.979Z,69.62
2023-02-04T21:59:04.290Z,69.71
2023-02-04T22:01:35.514Z,69.91
2023-02-04T22:04:04.210Z,70.03
2023-02-04T22:06:34.249Z,70.08
2023-02-04T22:09:03.498Z,70.14
2023-02-04T22:11:32.334Z,70.33
2023-02-04T22:14:05.642Z,70.47
2023-02-04T22:16:37.212Z,70.67
2023-02-04T22:19:06.360Z,70.85
2023-02-04T22:21:37.864Z,70.89
2023-02-04T22:24:09.767Z,71.16
2023-02-04T22:26:39.157Z,71.38
2023-02-04T22:29:08.068Z,71.64
2023-02-04T22:31:40.936Z,71.87
2023-02-04T22:34:10.166Z,72.05
2023-02-04T22:36:39.268Z,72.38
2023-02-04T22:39:09.263Z,72.65
2023-02-04T22:41:38.491Z,72.81
2023-02-04T22:44:07.601Z,72.89
2023-02-04T22:46:36.820Z,72.93
2023-02-04T22:49:05.917Z,73.06
2023-02-04T22:51:36.594Z,73.28
2023-02-04T22:54:05.611Z,73.40
2023-02-04T22:56:36.677Z,73.51
2023-02-04T22:59:05.822Z,73.57
2023-02-04T23:01:35.342Z,73.68
2023-02-04T23:04:05.285Z,73.78
2023-02-04T23:06:34.441Z,73.87
2023-02-04T23:09:03.648Z,73.90
2023-02-04T23:11:32.415Z,73.97
2023-02-04T23:14:02.809Z,74.02
2023-02-04T23:16:32.463Z,74.13
2023-02-04T23:19:01.409Z,74.20
2023-02-04T23:21:30.257Z,74.23
2023-02-04T23:24:00.034Z,74.30
2023-02-04T23:26:28.692Z,74.30
2023-02-04T23:28:58.062Z,74.15
2023-02-04T23:31:27.654Z,74.15
2023-02-04T23:33:56.780Z,74.28
2023-02-04T23:36:25.743Z,74.35
2023-02-04T23:38:54.810Z,74.50
2023-02-04T23:41:23.439Z,74.32
2023-02-04T23:43:52.228Z,74.44
2023-02-04T23:46:21.054Z,74.39
2023-02-04T23:48:49.870Z,74.41
2023-02-04T23:51:19.824Z,74.44
2023-02-04T23:53:49.008Z,74.62
2023-02-04T23:56:17.742Z,74.68
2023-02-04T23:58:46.360Z,74.70
